sensor_id;sensor_type;location;lat;lon;timestamp;temperature;humidity
48936;DHT22;34745;52.276;10.528;2022-09-01T00:00:51;15.70;1.00
48936;DHT22;34745;52.276;10.528;2022-09-01T00:03:20;15.60;1.00
48936;DHT22;34745;52.276;10.528;2022-09-01T00:05:52;15.60;1.00
48936;DHT22;34745;52.276;10.528;2022-09-01T00:08:21;15.70;1.00
48936;DHT22;34745;52.276;10.528;2022-09-01T00:10:49;15.70;1.00
48936;DHT22;34745;52.276;10.528;2022-09-01T00:13:17;15.70;1.00
48936;DHT22;34745;52.276;10.528;2022-09-01T00:15:44;15.50;1.00
48936;DHT22;34745;52.276;10.528;2022-09-01T00:18:11;15.40;1.00
48936;DHT22;34745;52.276;10.528;2022-09-01T00:20:40;15.40;1.00
48936;DHT22;34745;52.276;10.528;2022-09-01T00:23:07;15.40;1.00
48936;DHT22;34745;52.276;10.528;2022-09-01T00:25:35;15.40;1.00
48936;DHT22;34745;52.276;10.528;2022-09-01T00:28:02;15.40;1.00
48936;DHT22;34745;52.276;10.528;2022-09-01T00:30:30;15.20;1.00
48936;DHT22;34745;52.276;10.528;2022-09-01T00:32:57;15.20;1.00
48936;DHT22;34745;52.276;10.528;2022-09-01T00:35:25;15.20;1.00
48936;DHT22;34745;52.276;10.528;2022-09-01T00:37:53;15.30;1.00
48936;DHT22;34745;52.276;10.528;2022-09-01T00:40:23;15.30;1.00
48936;DHT22;34745;52.276;10.528;2022-09-01T00:42:50;15.30;1.00
48936;DHT22;34745;52.276;10.528;2022-09-01T00:45:20;15.40;1.00
48936;DHT22;34745;52.276;10.528;2022-09-01T00:47:48;15.30;1.00
48936;DHT22;34745;52.276;10.528;2022-09-01T00:50:17;15.20;1.00
48936;DHT22;34745;52.276;10.528;2022-09-01T00:52:48;15.20;1.00
48936;DHT22;34745;52.276;10.528;2022-09-01T00:55:23;15.10;1.00
48936;DHT22;34745;52.276;10.528;2022-09-01T00:57:51;15.20;1.00
48936;DHT22;34745;52.276;10.528;2022-09-01T01:00:21;15.40;1.00
48936;DHT22;34745;52.276;10.528;2022-09-01T01:02:49;15.40;1.00
48936;DHT22;34745;52.276;10.528;2022-09-01T01:05:23;15.20;1.00
48936;DHT22;34745;52.276;10.528;2022-09-01T01:07:54;15.10;1.00
48936;DHT22;34745;52.276;10.528;2022-09-01T01:10:23;15.00;1.00
48936;DHT22;34745;52.276;10.528;2022-09-01T01:12:52;15.00;1.00
48936;DHT22;34745;52.276;10.528;2022-09-01T01:15:20;14.90;1.00
48936;DHT22;34745;52.276;10.528;2022-09-01T01:17:47;14.90;1.00
48936;DHT22;34745;52.276;10.528;2022-09-01T01:20:14;14.90;1.00
48936;DHT22;34745;52.276;10.528;2022-09-01T01:23:08;15.00;1.00
48936;DHT22;34745;52.276;10.528;2022-09-01T01:25:41;15.00;1.00
48936;DHT22;34745;52.276;10.528;2022-09-01T01:28:12;15.20;1.00
48936;DHT22;34745;52.276;10.528;2022-09-01T01:30:41;15.20;1.00
48936;DHT22;34745;52.276;10.528;2022-09-01T01:33:09;15.20;1.00
48936;DHT22;34745;52.276;10.528;2022-09-01T01:35:37;15.20;1.00
48936;DHT22;34745;52.276;10.528;2022-09-01T01:38:05;15.30;1.00
48936;DHT22;34745;52.276;10.528;2022-09-01T01:40:34;15.30;1.00
48936;DHT22;34745;52.276;10.528;2022-09-01T01:43:03;15.30;1.00
48936;DHT22;34745;52.276;10.528;2022-09-01T01:45:30;15.10;1.00
48936;DHT22;34745;52.276;10.528;2022-09-01T01:47:58;14.90;1.00
48936;DHT22;34745;52.276;10.528;2022-09-01T01:50:28;14.90;1.00
48936;DHT22;34745;52.276;10.528;2022-09-01T01:52:59;14.90;1.00
48936;DHT22;34745;52.276;10.528;2022-09-01T01:55:27;15.00;1.00
48936;DHT22;34745;52.276;10.528;2022-09-01T01:57:55;15.00;1.00
48936;DHT22;34745;52.276;10.528;2022-09-01T02:00:26;15.00;1.00
48936;DHT22;34745;52.276;10.528;2022-09-01T02:02:57;15.00;1.00
48936;DHT22;34745;52.276;10.528;2022-09-01T02:05:26;14.90;1.00
48936;DHT22;34745;52.276;10.528;2022-09-01T02:07:56;14.90;1.00
48936;DHT22;34745;52.276;10.528;2022-09-01T02:10:28;14.90;1.00
48936;DHT22;34745;52.276;10.528;2022-09-01T02:12:57;14.90;1.00
48936;DHT22;34745;52.276;10.528;2022-09-01T02:15:32;14.80;1.00
48936;DHT22;34745;52.276;10.528;2022-09-01T02:18:10;14.80;1.00
48936;DHT22;34745;52.276;10.528;2022-09-01T02:20:39;14.70;1.00
48936;DHT22;34745;52.276;10.528;2022-09-01T02:23:08;14.60;1.00
48936;DHT22;34745;52.276;10.528;2022-09-01T02:25:43;14.60;1.00
48936;DHT22;34745;52.276;10.528;2022-09-01T02:28:33;14.60;1.00
48936;DHT22;34745;52.276;10.528;2022-09-01T02:31:04;14.60;1.00
48936;DHT22;34745;52.276;10.528;2022-09-01T02:33:31;14.50;1.00
48936;DHT22;34745;52.276;10.528;2022-09-01T02:36:01;14.50;1.00
48936;DHT22;34745;52.276;10.528;2022-09-01T02:38:29;14.40;1.00
48936;DHT22;34745;52.276;10.528;2022-09-01T02:40:58;14.40;1.00
48936;DHT22;34745;52.276;10.528;2022-09-01T02:43:25;14.40;1.00
48936;DHT22;34745;52.276;10.528;2022-09-01T02:45:56;14.50;1.00
48936;DHT22;34745;52.276;10.528;2022-09-01T02:48:29;14.40;1.00
48936;DHT22;34745;52.276;10.528;2022-09-01T02:51:02;14.60;1.00
48936;DHT22;34745;52.276;10.528;2022-09-01T02:53:31;14.50;1.00
48936;DHT22;34745;52.276;10.528;2022-09-01T02:56:00;14.50;1.00
48936;DHT22;34745;52.276;10.528;2022-09-01T02:58:30;14.50;1.00
48936;DHT22;34745;52.276;10.528;2022-09-01T03:01:00;14.40;1.00
48936;DHT22;34745;52.276;10.528;2022-09-01T03:03:29;14.40;1.00
48936;DHT22;34745;52.276;10.528;2022-09-01T03:05:56;14.30;1.00
48936;DHT22;34745;52.276;10.528;2022-09-01T03:08:24;14.20;1.00
48936;DHT22;34745;52.276;10.528;2022-09-01T03:10:51;14.20;1.00
48936;DHT22;34745;52.276;10.528;2022-09-01T03:13:22;14.20;1.00
48936;DHT22;34745;52.276;10.528;2022-09-01T03:15:50;14.20;1.00
48936;DHT22;34745;52.276;10.528;2022-09-01T03:18:17;14.20;1.00
48936;DHT22;34745;52.276;10.528;2022-09-01T03:20:46;14.20;1.00
48936;DHT22;34745;52.276;10.528;2022-09-01T03:23:15;14.20;1.00
48936;DHT22;34745;52.276;10.528;2022-09-01T03:25:47;14.20;1.00
48936;DHT22;34745;52.276;10.528;2022-09-01T03:28:15;14.20;1.00
48936;DHT22;34745;52.276;10.528;2022-09-01T03:30:45;14.20;1.00
48936;DHT22;34745;52.276;10.528;2022-09-01T03:33:13;14.20;1.00
48936;DHT22;34745;52.276;10.528;2022-09-01T03:35:40;14.20;1.00
48936;DHT22;34745;52.276;10.528;2022-09-01T03:38:10;14.20;1.00
48936;DHT22;34745;52.276;10.528;2022-09-01T03:40:39;14.10;1.00
48936;DHT22;34745;52.276;10.528;2022-09-01T03:43:08;14.00;1.00
48936;DHT22;34745;52.276;10.528;2022-09-01T03:45:39;13.90;1.00
48936;DHT22;34745;52.276;10.528;2022-09-01T03:48:08;13.80;1.00
48936;DHT22;34745;52.276;10.528;2022-09-01T03:50:36;13.80;1.00
48936;DHT22;34745;52.276;10.528;2022-09-01T03:53:08;13.70;1.00
48936;DHT22;34745;52.276;10.528;2022-09-01T03:55:36;13.70;1.00
48936;DHT22;34745;52.276;10.528;2022-09-01T03:58:05;13.70;1.00
48936;DHT22;34745;52.276;10.528;2022-09-01T04:00:37;13.80;1.00
48936;DHT22;34745;52.276;10.528;2022-09-01T04:03:07;13.80;1.00
48936;DHT22;34745;52.276;10.528;2022-09-01T04:05:35;13.80;1.00
48936;DHT22;34745;52.276;10.528;2022-09-01T04:08:05;13.70;1.00
48936;DHT22;34745;52.276;10.528;2022-09-01T04:10:35;13.60;1.00
48936;DHT22;34745;52.276;10.528;2022-09-01T04:13:04;13.70;1.00
48936;DHT22;34745;52.276;10.528;2022-09-01T04:15:31;13.60;1.00
48936;DHT22;34745;52.276;10.528;2022-09-01T04:17:59;13.60;1.00
48936;DHT22;34745;52.276;10.528;2022-09-01T04:20:36;13.60;1.00
48936;DHT22;34745;52.276;10.528;2022-09-01T04:23:25;13.60;1.00
48936;DHT22;34745;52.276;10.528;2022-09-01T04:25:59;13.60;1.00
48936;DHT22;34745;52.276;10.528;2022-09-01T04:28:37;13.70;1.00
48936;DHT22;34745;52.276;10.528;2022-09-01T04:31:07;13.70;1.00
48936;DHT22;34745;52.276;10.528;2022-09-01T04:33:36;13.90;1.00
48936;DHT22;34745;52.276;10.528;2022-09-01T04:36:14;14.00;1.00
48936;DHT22;34745;52.276;10.528;2022-09-01T04:38:45;13.90;1.00
48936;DHT22;34745;52.276;10.528;2022-09-01T04:41:17;13.90;1.00
48936;DHT22;34745;52.276;10.528;2022-09-01T04:43:47;13.90;1.00
48936;DHT22;34745;52.276;10.528;2022-09-01T04:46:14;13.90;1.00
48936;DHT22;34745;52.276;10.528;2022-09-01T04:48:42;13.80;1.00
48936;DHT22;34745;52.276;10.528;2022-09-01T04:51:12;13.80;1.00
48936;DHT22;34745;52.276;10.528;2022-09-01T04:53:41;13.80;1.00
48936;DHT22;34745;52.276;10.528;2022-09-01T04:56:17;13.80;1.00
48936;DHT22;34745;52.276;10.528;2022-09-01T04:58:49;13.90;1.00
48936;DHT22;34745;52.276;10.528;2022-09-01T05:01:25;13.80;1.00
48936;DHT22;34745;52.276;10.528;2022-09-01T05:03:53;13.80;1.00
48936;DHT22;34745;52.276;10.528;2022-09-01T05:06:29;13.80;1.00
48936;DHT22;34745;52.276;10.528;2022-09-01T05:08:59;13.80;1.00
48936;DHT22;34745;52.276;10.528;2022-09-01T05:11:27;13.80;1.00
48936;DHT22;34745;52.276;10.528;2022-09-01T05:13:55;13.70;1.00
48936;DHT22;34745;52.276;10.528;2022-09-01T05:16:23;13.60;1.00
48936;DHT22;34745;52.276;10.528;2022-09-01T05:18:53;13.50;1.00
48936;DHT22;34745;52.276;10.528;2022-09-01T05:21:23;13.70;1.00
48936;DHT22;34745;52.276;10.528;2022-09-01T05:23:52;13.60;1.00
48936;DHT22;34745;52.276;10.528;2022-09-01T05:26:21;13.70;1.00
48936;DHT22;34745;52.276;10.528;2022-09-01T05:28:53;13.80;1.00
48936;DHT22;34745;52.276;10.528;2022-09-01T05:31:21;13.80;1.00
48936;DHT22;34745;52.276;10.528;2022-09-01T05:33:49;13.80;1.00
48936;DHT22;34745;52.276;10.528;2022-09-01T05:36:18;13.90;1.00
48936;DHT22;34745;52.276;10.528;2022-09-01T05:38:47;14.00;1.00
48936;DHT22;34745;52.276;10.528;2022-09-01T05:41:16;14.00;1.00
48936;DHT22;34745;52.276;10.528;2022-09-01T05:43:45;13.90;1.00
48936;DHT22;34745;52.276;10.528;2022-09-01T05:46:15;13.90;1.00
48936;DHT22;34745;52.276;10.528;2022-09-01T05:48:43;13.90;1.00
48936;DHT22;34745;52.276;10.528;2022-09-01T05:51:11;13.90;1.00
48936;DHT22;34745;52.276;10.528;2022-09-01T05:54:02;13.90;1.00
48936;DHT22;34745;52.276;10.528;2022-09-01T05:56:32;14.00;1.00
48936;DHT22;34745;52.276;10.528;2022-09-01T05:59:00;14.00;1.00
48936;DHT22;34745;52.276;10.528;2022-09-01T06:01:49;14.10;1.00
48936;DHT22;34745;52.276;10.528;2022-09-01T06:04:16;14.20;1.00
48936;DHT22;34745;52.276;10.528;2022-09-01T06:06:46;14.40;1.00
48936;DHT22;34745;52.276;10.528;2022-09-01T06:09:36;14.40;1.00
48936;DHT22;34745;52.276;10.528;2022-09-01T06:12:04;14.50;1.00
48936;DHT22;34745;52.276;10.528;2022-09-01T06:14:31;14.50;1.00
48936;DHT22;34745;52.276;10.528;2022-09-01T06:16:59;14.50;1.00
48936;DHT22;34745;52.276;10.528;2022-09-01T06:19:28;14.60;1.00
48936;DHT22;34745;52.276;10.528;2022-09-01T06:22:02;14.70;1.00
48936;DHT22;34745;52.276;10.528;2022-09-01T06:24:29;14.60;1.00
48936;DHT22;34745;52.276;10.528;2022-09-01T06:26:56;14.50;1.00
48936;DHT22;34745;52.276;10.528;2022-09-01T06:29:23;14.40;1.00
48936;DHT22;34745;52.276;10.528;2022-09-01T06:31:50;14.50;1.00
48936;DHT22;34745;52.276;10.528;2022-09-01T06:34:19;14.40;1.00
48936;DHT22;34745;52.276;10.528;2022-09-01T06:36:47;14.40;1.00
48936;DHT22;34745;52.276;10.528;2022-09-01T06:39:15;14.40;1.00
48936;DHT22;34745;52.276;10.528;2022-09-01T06:41:46;14.40;1.00
48936;DHT22;34745;52.276;10.528;2022-09-01T06:44:19;14.50;1.00
48936;DHT22;34745;52.276;10.528;2022-09-01T06:46:49;14.50;1.00
48936;DHT22;34745;52.276;10.528;2022-09-01T06:49:17;14.50;1.00
48936;DHT22;34745;52.276;10.528;2022-09-01T06:51:46;14.70;1.00
48936;DHT22;34745;52.276;10.528;2022-09-01T06:54:15;14.70;1.00
48936;DHT22;34745;52.276;10.528;2022-09-01T06:56:46;14.80;1.00
48936;DHT22;34745;52.276;10.528;2022-09-01T06:59:19;14.90;1.00
48936;DHT22;34745;52.276;10.528;2022-09-01T07:01:46;14.80;1.00
48936;DHT22;34745;52.276;10.528;2022-09-01T07:04:14;14.80;1.00
48936;DHT22;34745;52.276;10.528;2022-09-01T07:06:52;14.80;1.00
48936;DHT22;34745;52.276;10.528;2022-09-01T07:09:39;14.90;1.00
48936;DHT22;34745;52.276;10.528;2022-09-01T07:12:16;14.90;1.00
48936;DHT22;34745;52.276;10.528;2022-09-01T07:14:54;15.00;1.00
48936;DHT22;34745;52.276;10.528;2022-09-01T07:17:41;15.10;1.00
48936;DHT22;34745;52.276;10.528;2022-09-01T07:20:09;15.40;1.00
48936;DHT22;34745;52.276;10.528;2022-09-01T07:22:56;15.60;1.00
48936;DHT22;34745;52.276;10.528;2022-09-01T07:25:33;15.70;1.00
48936;DHT22;34745;52.276;10.528;2022-09-01T07:28:21;15.90;1.00
48936;DHT22;34745;52.276;10.528;2022-09-01T07:31:02;16.10;1.00
48936;DHT22;34745;52.276;10.528;2022-09-01T07:33:56;16.20;1.00
48936;DHT22;34745;52.276;10.528;2022-09-01T07:36:44;16.40;1.00
48936;DHT22;34745;52.276;10.528;2022-09-01T07:39:33;16.50;1.00
48936;DHT22;34745;52.276;10.528;2022-09-01T07:42:17;16.50;1.00
48936;DHT22;34745;52.276;10.528;2022-09-01T07:45:06;16.60;1.00
48936;DHT22;34745;52.276;10.528;2022-09-01T07:47:55;16.80;1.00
48936;DHT22;34745;52.276;10.528;2022-09-01T07:50:22;17.00;1.00
48936;DHT22;34745;52.276;10.528;2022-09-01T07:53:07;17.10;1.00
48936;DHT22;34745;52.276;10.528;2022-09-01T07:55:45;17.20;1.00
48936;DHT22;34745;52.276;10.528;2022-09-01T07:58:13;17.30;1.00
48936;DHT22;34745;52.276;10.528;2022-09-01T08:00:40;17.40;1.00
48936;DHT22;34745;52.276;10.528;2022-09-01T08:03:12;17.50;1.00
48936;DHT22;34745;52.276;10.528;2022-09-01T08:05:39;17.60;1.00
48936;DHT22;34745;52.276;10.528;2022-09-01T08:08:06;17.70;1.00
48936;DHT22;34745;52.276;10.528;2022-09-01T08:10:55;18.00;1.00
48936;DHT22;34745;52.276;10.528;2022-09-01T08:13:30;18.00;1.00
48936;DHT22;34745;52.276;10.528;2022-09-01T08:16:03;18.00;1.00
48936;DHT22;34745;52.276;10.528;2022-09-01T08:18:34;18.10;1.00
48936;DHT22;34745;52.276;10.528;2022-09-01T08:21:18;18.10;1.00
48936;DHT22;34745;52.276;10.528;2022-09-01T08:23:48;18.30;1.00
48936;DHT22;34745;52.276;10.528;2022-09-01T08:26:18;18.30;1.00
48936;DHT22;34745;52.276;10.528;2022-09-01T08:28:46;18.40;1.00
48936;DHT22;34745;52.276;10.528;2022-09-01T08:31:22;18.40;1.00
48936;DHT22;34745;52.276;10.528;2022-09-01T08:33:50;18.50;1.00
48936;DHT22;34745;52.276;10.528;2022-09-01T08:36:18;18.60;1.00
48936;DHT22;34745;52.276;10.528;2022-09-01T08:38:52;18.60;1.00
48936;DHT22;34745;52.276;10.528;2022-09-01T08:41:28;18.70;1.00
48936;DHT22;34745;52.276;10.528;2022-09-01T08:44:10;18.80;1.00
48936;DHT22;34745;52.276;10.528;2022-09-01T08:46:42;18.90;1.00
48936;DHT22;34745;52.276;10.528;2022-09-01T08:49:13;18.90;1.00
48936;DHT22;34745;52.276;10.528;2022-09-01T08:51:55;19.00;1.00
48936;DHT22;34745;52.276;10.528;2022-09-01T08:54:26;19.10;1.00
48936;DHT22;34745;52.276;10.528;2022-09-01T08:57:02;19.20;1.00
48936;DHT22;34745;52.276;10.528;2022-09-01T08:59:30;19.20;1.00
48936;DHT22;34745;52.276;10.528;2022-09-01T09:02:05;19.20;1.00
48936;DHT22;34745;52.276;10.528;2022-09-01T09:04:52;19.20;1.00
48936;DHT22;34745;52.276;10.528;2022-09-01T09:07:28;19.20;1.00
48936;DHT22;34745;52.276;10.528;2022-09-01T09:10:05;19.30;1.00
48936;DHT22;34745;52.276;10.528;2022-09-01T09:12:48;19.30;1.00
48936;DHT22;34745;52.276;10.528;2022-09-01T09:15:25;19.40;1.00
48936;DHT22;34745;52.276;10.528;2022-09-01T09:17:59;19.40;1.00
48936;DHT22;34745;52.276;10.528;2022-09-01T09:20:32;19.40;1.00
48936;DHT22;34745;52.276;10.528;2022-09-01T09:23:03;19.50;1.00
48936;DHT22;34745;52.276;10.528;2022-09-01T09:25:32;19.50;1.00
48936;DHT22;34745;52.276;10.528;2022-09-01T09:28:01;19.60;1.00
48936;DHT22;34745;52.276;10.528;2022-09-01T09:30:29;19.60;1.00
48936;DHT22;34745;52.276;10.528;2022-09-01T09:32:59;19.60;1.00
48936;DHT22;34745;52.276;10.528;2022-09-01T09:35:49;19.60;1.00
48936;DHT22;34745;52.276;10.528;2022-09-01T09:38:20;19.70;1.00
48936;DHT22;34745;52.276;10.528;2022-09-01T09:40:56;19.70;1.00
48936;DHT22;34745;52.276;10.528;2022-09-01T09:43:48;19.80;99.90
48936;DHT22;34745;52.276;10.528;2022-09-01T09:46:24;19.90;99.90
48936;DHT22;34745;52.276;10.528;2022-09-01T09:49:14;20.00;99.90
48936;DHT22;34745;52.276;10.528;2022-09-01T09:51:44;20.10;99.90
48936;DHT22;34745;52.276;10.528;2022-09-01T09:54:19;20.20;99.90
48936;DHT22;34745;52.276;10.528;2022-09-01T09:56:48;20.20;99.90
48936;DHT22;34745;52.276;10.528;2022-09-01T09:59:31;20.20;99.90
48936;DHT22;34745;52.276;10.528;2022-09-01T10:02:24;20.20;99.90
48936;DHT22;34745;52.276;10.528;2022-09-01T10:04:54;20.20;99.90
48936;DHT22;34745;52.276;10.528;2022-09-01T10:07:31;20.20;99.90
48936;DHT22;34745;52.276;10.528;2022-09-01T10:09:59;20.10;99.90
48936;DHT22;34745;52.276;10.528;2022-09-01T10:12:28;20.20;1.00
48936;DHT22;34745;52.276;10.528;2022-09-01T10:15:02;20.20;1.00
48936;DHT22;34745;52.276;10.528;2022-09-01T10:17:39;20.30;99.90
48936;DHT22;34745;52.276;10.528;2022-09-01T10:20:12;20.40;99.90
48936;DHT22;34745;52.276;10.528;2022-09-01T10:22:41;20.50;99.90
48936;DHT22;34745;52.276;10.528;2022-09-01T10:25:16;20.60;99.90
48936;DHT22;34745;52.276;10.528;2022-09-01T10:27:46;20.80;99.90
48936;DHT22;34745;52.276;10.528;2022-09-01T10:30:17;20.80;99.90
48936;DHT22;34745;52.276;10.528;2022-09-01T10:32:48;20.80;99.90
48936;DHT22;34745;52.276;10.528;2022-09-01T10:35:24;20.80;99.90
48936;DHT22;34745;52.276;10.528;2022-09-01T10:37:53;20.80;99.90
48936;DHT22;34745;52.276;10.528;2022-09-01T10:40:36;20.90;99.90
48936;DHT22;34745;52.276;10.528;2022-09-01T10:43:25;21.10;99.90
48936;DHT22;34745;52.276;10.528;2022-09-01T10:45:54;21.10;99.90
48936;DHT22;34745;52.276;10.528;2022-09-01T10:48:32;21.20;99.90
48936;DHT22;34745;52.276;10.528;2022-09-01T10:51:40;21.30;99.90
48936;DHT22;34745;52.276;10.528;2022-09-01T10:54:54;21.50;99.90
48936;DHT22;34745;52.276;10.528;2022-09-01T10:57:41;21.60;99.90
48936;DHT22;34745;52.276;10.528;2022-09-01T11:00:47;21.70;99.90
48936;DHT22;34745;52.276;10.528;2022-09-01T11:06:53;22.00;99.90
48936;DHT22;34745;52.276;10.528;2022-09-01T11:09:42;21.90;99.90
48936;DHT22;34745;52.276;10.528;2022-09-01T11:15:33;22.20;99.90
48936;DHT22;34745;52.276;10.528;2022-09-01T11:18:07;22.40;99.90
48936;DHT22;34745;52.276;10.528;2022-09-01T11:20:37;22.60;99.90
48936;DHT22;34745;52.276;10.528;2022-09-01T11:23:07;22.70;99.90
48936;DHT22;34745;52.276;10.528;2022-09-01T11:25:41;22.80;99.90
48936;DHT22;34745;52.276;10.528;2022-09-01T11:28:40;22.90;99.90
48936;DHT22;34745;52.276;10.528;2022-09-01T11:31:27;22.90;99.90
48936;DHT22;34745;52.276;10.528;2022-09-01T11:34:07;23.10;99.90
48936;DHT22;34745;52.276;10.528;2022-09-01T11:36:46;23.10;99.90
48936;DHT22;34745;52.276;10.528;2022-09-01T11:39:31;23.20;99.90
48936;DHT22;34745;52.276;10.528;2022-09-01T11:42:02;23.10;99.90
48936;DHT22;34745;52.276;10.528;2022-09-01T11:44:35;23.10;99.90
48936;DHT22;34745;52.276;10.528;2022-09-01T11:47:07;23.30;99.90
48936;DHT22;34745;52.276;10.528;2022-09-01T11:49:47;23.30;99.90
48936;DHT22;34745;52.276;10.528;2022-09-01T11:52:15;23.60;99.90
48936;DHT22;34745;52.276;10.528;2022-09-01T11:54:43;23.80;99.90
48936;DHT22;34745;52.276;10.528;2022-09-01T11:57:25;24.10;99.90
48936;DHT22;34745;52.276;10.528;2022-09-01T11:59:53;24.30;99.90
48936;DHT22;34745;52.276;10.528;2022-09-01T12:02:23;24.60;99.90
48936;DHT22;34745;52.276;10.528;2022-09-01T12:04:53;24.80;99.90
48936;DHT22;34745;52.276;10.528;2022-09-01T12:07:38;24.90;99.90
48936;DHT22;34745;52.276;10.528;2022-09-01T12:10:14;25.00;99.90
48936;DHT22;34745;52.276;10.528;2022-09-01T12:12:42;25.10;99.90
48936;DHT22;34745;52.276;10.528;2022-09-01T12:15:18;25.20;99.90
48936;DHT22;34745;52.276;10.528;2022-09-01T12:17:45;25.10;99.90
48936;DHT22;34745;52.276;10.528;2022-09-01T12:20:22;24.90;99.90
48936;DHT22;34745;52.276;10.528;2022-09-01T12:22:55;24.80;99.90
48936;DHT22;34745;52.276;10.528;2022-09-01T12:25:25;24.50;99.90
48936;DHT22;34745;52.276;10.528;2022-09-01T12:27:53;24.10;99.90
48936;DHT22;34745;52.276;10.528;2022-09-01T12:30:21;23.80;99.90
48936;DHT22;34745;52.276;10.528;2022-09-01T12:32:49;23.60;99.90
48936;DHT22;34745;52.276;10.528;2022-09-01T12:35:20;24.10;99.90
48936;DHT22;34745;52.276;10.528;2022-09-01T12:37:48;24.60;99.90
48936;DHT22;34745;52.276;10.528;2022-09-01T12:40:24;25.10;99.90
48936;DHT22;34745;52.276;10.528;2022-09-01T12:42:52;25.50;99.90
48936;DHT22;34745;52.276;10.528;2022-09-01T12:45:37;25.90;99.90
48936;DHT22;34745;52.276;10.528;2022-09-01T12:48:04;26.20;99.90
48936;DHT22;34745;52.276;10.528;2022-09-01T12:50:42;26.50;99.90
48936;DHT22;34745;52.276;10.528;2022-09-01T12:53:17;26.50;99.90
48936;DHT22;34745;52.276;10.528;2022-09-01T12:56:04;26.80;99.90
48936;DHT22;34745;52.276;10.528;2022-09-01T12:58:32;27.00;99.90
48936;DHT22;34745;52.276;10.528;2022-09-01T13:01:02;26.60;99.90
48936;DHT22;34745;52.276;10.528;2022-09-01T13:03:32;26.30;99.90
48936;DHT22;34745;52.276;10.528;2022-09-01T13:06:02;26.00;99.90
48936;DHT22;34745;52.276;10.528;2022-09-01T13:08:30;26.30;99.90
48936;DHT22;34745;52.276;10.528;2022-09-01T13:11:02;26.60;99.90
48936;DHT22;34745;52.276;10.528;2022-09-01T13:13:30;26.30;99.90
48936;DHT22;34745;52.276;10.528;2022-09-01T13:15:58;25.60;99.90
48936;DHT22;34745;52.276;10.528;2022-09-01T13:18:28;25.00;99.90
48936;DHT22;34745;52.276;10.528;2022-09-01T13:20:56;24.50;99.90
48936;DHT22;34745;52.276;10.528;2022-09-01T13:23:26;24.80;99.90
48936;DHT22;34745;52.276;10.528;2022-09-01T13:25:53;25.10;99.90
48936;DHT22;34745;52.276;10.528;2022-09-01T13:28:20;24.90;99.90
48936;DHT22;34745;52.276;10.528;2022-09-01T13:30:57;24.50;99.90
48936;DHT22;34745;52.276;10.528;2022-09-01T13:33:44;24.30;99.90
48936;DHT22;34745;52.276;10.528;2022-09-01T13:36:31;24.60;99.90
48936;DHT22;34745;52.276;10.528;2022-09-01T13:39:19;25.70;99.90
48936;DHT22;34745;52.276;10.528;2022-09-01T13:41:47;26.70;99.90
48936;DHT22;34745;52.276;10.528;2022-09-01T13:44:14;27.30;99.90
48936;DHT22;34745;52.276;10.528;2022-09-01T13:46:43;27.80;99.90
48936;DHT22;34745;52.276;10.528;2022-09-01T13:49:30;28.30;99.90
48936;DHT22;34745;52.276;10.528;2022-09-01T13:52:18;28.80;99.90
48936;DHT22;34745;52.276;10.528;2022-09-01T13:54:47;28.90;99.90
48936;DHT22;34745;52.276;10.528;2022-09-01T13:57:14;28.70;99.90
48936;DHT22;34745;52.276;10.528;2022-09-01T13:59:42;28.90;99.90
48936;DHT22;34745;52.276;10.528;2022-09-01T14:02:09;29.10;99.90
48936;DHT22;34745;52.276;10.528;2022-09-01T14:04:37;29.20;99.90
48936;DHT22;34745;52.276;10.528;2022-09-01T14:07:04;29.40;99.90
48936;DHT22;34745;52.276;10.528;2022-09-01T14:09:32;29.60;99.90
48936;DHT22;34745;52.276;10.528;2022-09-01T14:12:00;29.80;99.90
48936;DHT22;34745;52.276;10.528;2022-09-01T14:14:27;29.80;99.90
48936;DHT22;34745;52.276;10.528;2022-09-01T14:17:14;29.80;99.90
48936;DHT22;34745;52.276;10.528;2022-09-01T14:19:41;29.60;99.90
48936;DHT22;34745;52.276;10.528;2022-09-01T14:22:08;29.70;99.90
48936;DHT22;34745;52.276;10.528;2022-09-01T14:24:35;29.20;99.90
48936;DHT22;34745;52.276;10.528;2022-09-01T14:27:07;28.10;99.90
48936;DHT22;34745;52.276;10.528;2022-09-01T14:29:35;27.20;99.90
48936;DHT22;34745;52.276;10.528;2022-09-01T14:32:03;26.80;99.90
48936;DHT22;34745;52.276;10.528;2022-09-01T14:34:30;27.30;99.90
48936;DHT22;34745;52.276;10.528;2022-09-01T14:36:57;27.90;99.90
48936;DHT22;34745;52.276;10.528;2022-09-01T14:39:24;28.50;99.90
48936;DHT22;34745;52.276;10.528;2022-09-01T14:41:52;29.00;99.90
48936;DHT22;34745;52.276;10.528;2022-09-01T14:44:20;29.10;99.90
48936;DHT22;34745;52.276;10.528;2022-09-01T14:46:47;29.40;99.90
48936;DHT22;34745;52.276;10.528;2022-09-01T14:49:17;29.30;99.90
48936;DHT22;34745;52.276;10.528;2022-09-01T14:51:48;29.20;99.90
48936;DHT22;34745;52.276;10.528;2022-09-01T14:54:37;28.90;99.90
48936;DHT22;34745;52.276;10.528;2022-09-01T14:57:05;28.60;99.90
48936;DHT22;34745;52.276;10.528;2022-09-01T14:59:54;28.80;99.90
48936;DHT22;34745;52.276;10.528;2022-09-01T15:02:20;29.00;99.90
48936;DHT22;34745;52.276;10.528;2022-09-01T15:04:48;29.00;99.90
48936;DHT22;34745;52.276;10.528;2022-09-01T15:07:15;29.00;99.90
48936;DHT22;34745;52.276;10.528;2022-09-01T15:09:42;29.00;99.90
48936;DHT22;34745;52.276;10.528;2022-09-01T15:12:09;29.20;99.90
48936;DHT22;34745;52.276;10.528;2022-09-01T15:14:36;29.60;99.90
48936;DHT22;34745;52.276;10.528;2022-09-01T15:17:05;29.80;99.90
48936;DHT22;34745;52.276;10.528;2022-09-01T15:19:32;30.10;99.90
48936;DHT22;34745;52.276;10.528;2022-09-01T15:22:00;30.30;99.90
48936;DHT22;34745;52.276;10.528;2022-09-01T15:24:28;30.30;99.90
48936;DHT22;34745;52.276;10.528;2022-09-01T15:26:55;29.40;99.90
48936;DHT22;34745;52.276;10.528;2022-09-01T15:29:22;28.60;99.90
48936;DHT22;34745;52.276;10.528;2022-09-01T15:31:49;27.70;99.90
48936;DHT22;34745;52.276;10.528;2022-09-01T15:34:17;26.80;99.90
48936;DHT22;34745;52.276;10.528;2022-09-01T15:36:44;26.20;99.90
48936;DHT22;34745;52.276;10.528;2022-09-01T15:39:11;25.70;99.90
48936;DHT22;34745;52.276;10.528;2022-09-01T15:41:38;25.30;99.90
48936;DHT22;34745;52.276;10.528;2022-09-01T15:44:06;25.00;99.90
48936;DHT22;34745;52.276;10.528;2022-09-01T15:46:34;24.70;99.90
48936;DHT22;34745;52.276;10.528;2022-09-01T15:49:04;24.70;99.90
48936;DHT22;34745;52.276;10.528;2022-09-01T15:51:35;24.50;99.90
48936;DHT22;34745;52.276;10.528;2022-09-01T15:54:04;24.40;99.90
48936;DHT22;34745;52.276;10.528;2022-09-01T15:56:31;24.30;99.90
48936;DHT22;34745;52.276;10.528;2022-09-01T15:59:00;24.30;99.90
48936;DHT22;34745;52.276;10.528;2022-09-01T16:01:29;24.20;99.90
48936;DHT22;34745;52.276;10.528;2022-09-01T16:03:58;24.50;99.90